sensor_id;sensor_type;location;lat;lon;timestamp;pressure;altitude;pressure_sealevel;temperature;humidity
7168;BME280;3625;51.762;14.320;2022-09-03T00:01:52;100976.22;;;13.08;85.72
7168;BME280;3625;51.762;14.320;2022-09-03T00:04:31;100979.75;;;13.07;85.49
7168;BME280;3625;51.762;14.320;2022-09-03T00:07:10;100982.56;;;13.02;85.76
7168;BME280;3625;51.762;14.320;2022-09-03T00:09:46;100984.28;;;13.05;86.03
7168;BME280;3625;51.762;14.320;2022-09-03T00:12:22;100980.97;;;12.94;86.41
7168;BME280;3625;51.762;14.320;2022-09-03T00:15:00;100980.13;;;12.92;86.83
7168;BME280;3625;51.762;14.320;2022-09-03T00:17:39;100967.84;;;12.88;86.53
7168;BME280;3625;51.762;14.320;2022-09-03T00:20:15;100979.28;;;12.90;86.89
7168;BME280;3625;51.762;14.320;2022-09-03T00:22:49;100978.78;;;12.74;86.70
7168;BME280;3625;51.762;14.320;2022-09-03T00:25:23;100970.84;;;12.72;88.25
7168;BME280;3625;51.762;14.320;2022-09-03T00:27:57;100965.59;;;12.71;88.09
7168;BME280;3625;51.762;14.320;2022-09-03T00:30:35;100967.50;;;12.64;88.61
7168;BME280;3625;51.762;14.320;2022-09-03T00:33:08;100811.47;;;11.60;88.90
7168;BME280;3625;51.762;14.320;2022-09-03T00:35:45;100860.44;;;11.85;89.69
7168;BME280;3625;51.762;14.320;2022-09-03T00:38:16;100970.69;;;12.40;90.11
7168;BME280;3625;51.762;14.320;2022-09-03T00:41:03;100970.50;;;12.49;91.05
7168;BME280;3625;51.762;14.320;2022-09-03T00:43:56;100969.75;;;12.42;90.57
7168;BME280;3625;51.762;14.320;2022-09-03T00:46:41;100969.66;;;12.47;91.05
7168;BME280;3625;51.762;14.320;2022-09-03T00:49:27;100967.13;;;12.41;91.20
7168;BME280;3625;51.762;14.320;2022-09-03T00:52:13;100969.97;;;12.33;91.57
7168;BME280;3625;51.762;14.320;2022-09-03T00:55:04;100975.41;;;12.27;92.36
7168;BME280;3625;51.762;14.320;2022-09-03T00:57:53;100867.06;;;11.63;92.73
7168;BME280;3625;51.762;14.320;2022-09-03T01:00:32;100964.91;;;12.20;93.39
7168;BME280;3625;51.762;14.320;2022-09-03T01:03:06;100930.94;;;11.97;93.43
7168;BME280;3625;51.762;14.320;2022-09-03T01:06:02;100943.16;;;12.02;94.20
7168;BME280;3625;51.762;14.320;2022-09-03T01:11:51;100760.59;;;11.00;94.80
7168;BME280;3625;51.762;14.320;2022-09-03T01:14:43;100959.59;;;12.21;94.44
7168;BME280;3625;51.762;14.320;2022-09-03T01:17:33;100961.63;;;12.08;94.60
7168;BME280;3625;51.762;14.320;2022-09-03T01:20:34;100843.78;;;11.34;95.72
7168;BME280;3625;51.762;14.320;2022-09-03T01:23:37;100956.50;;;11.99;95.73
7168;BME280;3625;51.762;14.320;2022-09-03T01:26:45;100823.66;;;11.25;96.42
7168;BME280;3625;51.762;14.320;2022-09-03T01:29:27;100959.03;;;12.05;96.20
7168;BME280;3625;51.762;14.320;2022-09-03T01:32:06;100953.88;;;11.98;96.38
7168;BME280;3625;51.762;14.320;2022-09-03T01:34:46;100955.88;;;11.85;96.75
7168;BME280;3625;51.762;14.320;2022-09-03T01:37:35;100809.94;;;11.04;97.70
7168;BME280;3625;51.762;14.320;2022-09-03T01:40:16;100931.31;;;11.77;97.47
7168;BME280;3625;51.762;14.320;2022-09-03T01:43:08;100956.84;;;11.83;98.04
7168;BME280;3625;51.762;14.320;2022-09-03T01:45:52;100780.59;;;10.68;99.29
7168;BME280;3625;51.762;14.320;2022-09-03T01:48:41;100935.28;;;11.52;100.00
7168;BME280;3625;51.762;14.320;2022-09-03T01:51:20;100959.00;;;11.59;100.00
7168;BME280;3625;51.762;14.320;2022-09-03T01:54:28;100936.44;;;11.39;100.00
7168;BME280;3625;51.762;14.320;2022-09-03T01:57:23;100956.44;;;11.55;100.00
7168;BME280;3625;51.762;14.320;2022-09-03T02:00:07;100898.09;;;11.10;100.00
7168;BME280;3625;51.762;14.320;2022-09-03T02:02:39;100953.97;;;11.46;100.00
7168;BME280;3625;51.762;14.320;2022-09-03T02:05:13;100900.63;;;11.16;100.00
7168;BME280;3625;51.762;14.320;2022-09-03T02:07:47;100812.47;;;10.62;100.00
7168;BME280;3625;51.762;14.320;2022-09-03T02:10:20;100954.97;;;11.40;100.00
7168;BME280;3625;51.762;14.320;2022-09-03T02:12:54;100948.84;;;11.35;100.00
7168;BME280;3625;51.762;14.320;2022-09-03T02:15:27;100949.88;;;11.26;100.00
7168;BME280;3625;51.762;14.320;2022-09-03T02:18:02;100912.25;;;11.08;100.00
7168;BME280;3625;51.762;14.320;2022-09-03T02:20:34;100949.00;;;11.26;100.00
7168;BME280;3625;51.762;14.320;2022-09-03T02:23:06;100950.75;;;11.27;100.00
7168;BME280;3625;51.762;14.320;2022-09-03T02:25:38;100719.28;;;9.90;100.00
7168;BME280;3625;51.762;14.320;2022-09-03T02:28:09;100908.03;;;10.96;100.00
7168;BME280;3625;51.762;14.320;2022-09-03T02:30:53;100953.44;;;11.25;100.00
7168;BME280;3625;51.762;14.320;2022-09-03T02:33:25;100954.31;;;11.24;100.00
7168;BME280;3625;51.762;14.320;2022-09-03T02:35:56;100949.03;;;11.24;100.00
7168;BME280;3625;51.762;14.320;2022-09-03T02:38:28;100954.50;;;11.15;100.00
7168;BME280;3625;51.762;14.320;2022-09-03T02:41:02;100952.88;;;11.07;100.00
7168;BME280;3625;51.762;14.320;2022-09-03T02:43:39;100916.91;;;10.92;100.00
7168;BME280;3625;51.762;14.320;2022-09-03T02:46:19;100873.22;;;10.67;100.00
7168;BME280;3625;51.762;14.320;2022-09-03T02:48:50;100949.16;;;11.17;100.00
7168;BME280;3625;51.762;14.320;2022-09-03T02:51:19;100951.94;;;11.09;100.00
7168;BME280;3625;51.762;14.320;2022-09-03T02:53:48;100940.56;;;11.04;100.00
7168;BME280;3625;51.762;14.320;2022-09-03T02:56:17;100944.16;;;10.98;100.00
7168;BME280;3625;51.762;14.320;2022-09-03T02:58:46;100943.28;;;11.00;100.00
7168;BME280;3625;51.762;14.320;2022-09-03T03:01:15;100945.16;;;10.93;100.00
7168;BME280;3625;51.762;14.320;2022-09-03T03:03:53;100943.41;;;10.92;100.00
7168;BME280;3625;51.762;14.320;2022-09-03T03:06:24;100946.16;;;10.86;100.00
7168;BME280;3625;51.762;14.320;2022-09-03T03:08:57;100946.19;;;10.81;100.00
7168;BME280;3625;51.762;14.320;2022-09-03T03:11:36;100949.72;;;10.83;100.00
7168;BME280;3625;51.762;14.320;2022-09-03T03:14:06;100952.44;;;10.80;100.00
7168;BME280;3625;51.762;14.320;2022-09-03T03:16:35;100954.19;;;10.80;100.00
7168;BME280;3625;51.762;14.320;2022-09-03T03:19:08;100961.28;;;10.78;100.00
7168;BME280;3625;51.762;14.320;2022-09-03T03:21:37;100965.69;;;10.77;100.00
7168;BME280;3625;51.762;14.320;2022-09-03T03:24:07;100965.59;;;10.82;100.00
7168;BME280;3625;51.762;14.320;2022-09-03T03:26:36;100972.66;;;10.83;100.00
7168;BME280;3625;51.762;14.320;2022-09-03T03:29:05;100960.13;;;10.94;100.00
7168;BME280;3625;51.762;14.320;2022-09-03T03:31:36;100963.56;;;10.99;100.00
7168;BME280;3625;51.762;14.320;2022-09-03T03:34:06;100965.28;;;11.03;100.00
7168;BME280;3625;51.762;14.320;2022-09-03T03:36:36;100961.75;;;11.04;100.00
7168;BME280;3625;51.762;14.320;2022-09-03T03:39:05;100958.22;;;11.04;100.00
7168;BME280;3625;51.762;14.320;2022-09-03T03:41:37;100964.44;;;11.01;100.00
7168;BME280;3625;51.762;14.320;2022-09-03T03:44:07;100960.88;;;11.04;100.00
7168;BME280;3625;51.762;14.320;2022-09-03T03:46:39;100960.88;;;11.04;100.00
7168;BME280;3625;51.762;14.320;2022-09-03T03:49:10;100954.72;;;11.00;100.00
7168;BME280;3625;51.762;14.320;2022-09-03T03:51:39;100959.25;;;10.93;100.00
7168;BME280;3625;51.762;14.320;2022-09-03T03:54:08;100960.38;;;10.80;100.00
7168;BME280;3625;51.762;14.320;2022-09-03T03:56:39;100959.53;;;10.77;100.00
7168;BME280;3625;51.762;14.320;2022-09-03T03:59:08;100958.72;;;10.72;100.00
7168;BME280;3625;51.762;14.320;2022-09-03T04:01:37;100959.63;;;10.71;100.00
7168;BME280;3625;51.762;14.320;2022-09-03T04:04:06;100949.06;;;10.68;100.00
7168;BME280;3625;51.762;14.320;2022-09-03T04:06:37;100954.22;;;10.78;100.00
7168;BME280;3625;51.762;14.320;2022-09-03T04:09:08;100953.47;;;10.69;100.00
7168;BME280;3625;51.762;14.320;2022-09-03T04:11:37;100950.06;;;10.61;100.00
7168;BME280;3625;51.762;14.320;2022-09-03T04:14:06;100962.41;;;10.60;100.00
7168;BME280;3625;51.762;14.320;2022-09-03T04:16:35;100961.56;;;10.58;100.00
7168;BME280;3625;51.762;14.320;2022-09-03T04:19:04;100963.16;;;10.71;100.00
7168;BME280;3625;51.762;14.320;2022-09-03T04:21:38;100959.59;;;10.72;100.00
7168;BME280;3625;51.762;14.320;2022-09-03T04:24:07;100962.94;;;10.85;100.00
7168;BME280;3625;51.762;14.320;2022-09-03T04:26:36;100967.16;;;10.96;100.00
7168;BME280;3625;51.762;14.320;2022-09-03T04:29:07;100961.75;;;11.03;100.00
7168;BME280;3625;51.762;14.320;2022-09-03T04:31:37;100964.31;;;11.07;100.00
7168;BME280;3625;51.762;14.320;2022-09-03T04:34:27;100966.81;;;11.16;100.00
7168;BME280;3625;51.762;14.320;2022-09-03T04:36:57;100969.38;;;11.24;100.00
7168;BME280;3625;51.762;14.320;2022-09-03T04:39:26;100956.81;;;11.33;100.00
7168;BME280;3625;51.762;14.320;2022-09-03T04:42:01;100959.38;;;11.41;100.00
7168;BME280;3625;51.762;14.320;2022-09-03T04:44:30;100959.25;;;11.47;100.00
7168;BME280;3625;51.762;14.320;2022-09-03T04:50:06;100963.38;;;11.62;100.00
7168;BME280;3625;51.762;14.320;2022-09-03T04:52:37;100963.25;;;11.68;100.00
7168;BME280;3625;51.762;14.320;2022-09-03T04:55:24;100960.44;;;11.79;100.00
7168;BME280;3625;51.762;14.320;2022-09-03T04:58:01;100965.56;;;11.88;100.00
7168;BME280;3625;51.762;14.320;2022-09-03T05:00:34;100972.34;;;12.02;100.00
7168;BME280;3625;51.762;14.320;2022-09-03T05:03:06;100975.66;;;12.14;100.00
7168;BME280;3625;51.762;14.320;2022-09-03T05:05:44;100972.75;;;12.27;100.00
7168;BME280;3625;51.762;14.320;2022-09-03T05:08:22;100952.44;;;12.25;100.00
7168;BME280;3625;51.762;14.320;2022-09-03T05:10:57;100973.19;;;12.47;99.85
7168;BME280;3625;51.762;14.320;2022-09-03T05:13:27;100978.31;;;12.55;99.29
7168;BME280;3625;51.762;14.320;2022-09-03T05:16:02;100956.19;;;12.55;97.65
7168;BME280;3625;51.762;14.320;2022-09-03T05:18:33;100980.50;;;12.76;96.64
7168;BME280;3625;51.762;14.320;2022-09-03T05:21:05;100958.41;;;12.74;95.25
7168;BME280;3625;51.762;14.320;2022-09-03T05:23:38;100976.50;;;12.97;94.17
7168;BME280;3625;51.762;14.320;2022-09-03T05:26:15;100975.47;;;13.03;92.71
7168;BME280;3625;51.762;14.320;2022-09-03T05:28:52;100981.53;;;13.06;90.53
7168;BME280;3625;51.762;14.320;2022-09-03T05:31:25;100892.34;;;12.62;89.72
7168;BME280;3625;51.762;14.320;2022-09-03T05:34:06;100953.06;;;13.13;89.33
7168;BME280;3625;51.762;14.320;2022-09-03T05:36:44;100987.88;;;13.39;87.28
7168;BME280;3625;51.762;14.320;2022-09-03T05:39:17;100992.63;;;13.60;87.32
7168;BME280;3625;51.762;14.320;2022-09-03T05:41:48;100985.09;;;13.76;85.02
7168;BME280;3625;51.762;14.320;2022-09-03T05:44:21;100983.91;;;13.88;85.26
7168;BME280;3625;51.762;14.320;2022-09-03T05:46:50;100995.22;;;13.96;84.01
7168;BME280;3625;51.762;14.320;2022-09-03T05:49:20;100992.38;;;14.02;83.03
7168;BME280;3625;51.762;14.320;2022-09-03T05:51:49;100986.31;;;13.97;83.05
7168;BME280;3625;51.762;14.320;2022-09-03T05:54:19;100994.41;;;13.92;83.63
7168;BME280;3625;51.762;14.320;2022-09-03T05:59:48;100996.22;;;13.92;83.39
7168;BME280;3625;51.762;14.320;2022-09-03T06:02:17;100987.41;;;13.90;83.41
7168;BME280;3625;51.762;14.320;2022-09-03T06:04:46;100989.09;;;13.92;83.85
7168;BME280;3625;51.762;14.320;2022-09-03T06:07:26;100987.31;;;13.93;83.96
7168;BME280;3625;51.762;14.320;2022-09-03T06:09:57;100988.19;;;13.93;83.94
7168;BME280;3625;51.762;14.320;2022-09-03T06:12:26;100986.31;;;13.97;83.25
7168;BME280;3625;51.762;14.320;2022-09-03T06:14:58;100995.19;;;13.97;83.51
7168;BME280;3625;51.762;14.320;2022-09-03T06:17:28;100997.81;;;13.99;83.42
7168;BME280;3625;51.762;14.320;2022-09-03T06:20:09;100997.63;;;14.05;82.12
7168;BME280;3625;51.762;14.320;2022-09-03T06:22:41;100996.78;;;14.03;82.00
7168;BME280;3625;51.762;14.320;2022-09-03T06:25:20;100994.22;;;14.00;82.69
7168;BME280;3625;51.762;14.320;2022-09-03T06:27:49;100990.78;;;13.96;83.38
7168;BME280;3625;51.762;14.320;2022-09-03T06:30:18;100991.56;;;14.00;83.29
7168;BME280;3625;51.762;14.320;2022-09-03T06:33:00;100997.59;;;14.07;81.47
7168;BME280;3625;51.762;14.320;2022-09-03T06:35:40;100995.81;;;14.07;80.85
7168;BME280;3625;51.762;14.320;2022-09-03T06:38:13;100999.38;;;14.06;81.33
7168;BME280;3625;51.762;14.320;2022-09-03T06:40:43;100997.59;;;14.07;80.86
7168;BME280;3625;51.762;14.320;2022-09-03T06:43:30;100997.47;;;14.10;81.41
7168;BME280;3625;51.762;14.320;2022-09-03T06:46:11;100994.88;;;14.08;81.91
7168;BME280;3625;51.762;14.320;2022-09-03T06:48:41;100999.94;;;14.17;80.53
7168;BME280;3625;51.762;14.320;2022-09-03T06:51:15;100986.03;;;14.08;80.02
7168;BME280;3625;51.762;14.320;2022-09-03T06:53:47;100996.28;;;14.21;81.39
7168;BME280;3625;51.762;14.320;2022-09-03T06:56:20;101007.56;;;14.29;81.33
7168;BME280;3625;51.762;14.320;2022-09-03T06:58:57;100995.25;;;14.27;81.05
7168;BME280;3625;51.762;14.320;2022-09-03T07:01:29;100956.75;;;14.08;81.38
7168;BME280;3625;51.762;14.320;2022-09-03T07:04:03;100849.31;;;13.51;81.52
7168;BME280;3625;51.762;14.320;2022-09-03T07:06:35;101005.28;;;14.48;80.57
7168;BME280;3625;51.762;14.320;2022-09-03T07:09:11;101010.53;;;14.51;80.35
7168;BME280;3625;51.762;14.320;2022-09-03T07:11:43;101008.50;;;14.59;81.02
7168;BME280;3625;51.762;14.320;2022-09-03T07:14:16;101011.78;;;14.69;78.86
7168;BME280;3625;51.762;14.320;2022-09-03T07:16:46;101009.97;;;14.69;78.97
7168;BME280;3625;51.762;14.320;2022-09-03T07:19:16;101010.50;;;14.81;79.73
7168;BME280;3625;51.762;14.320;2022-09-03T07:21:45;101007.75;;;14.84;79.30
7168;BME280;3625;51.762;14.320;2022-09-03T07:24:18;101011.22;;;14.87;77.88
7168;BME280;3625;51.762;14.320;2022-09-03T07:26:50;101014.56;;;14.94;78.68
7168;BME280;3625;51.762;14.320;2022-09-03T07:29:19;101019.00;;;14.93;77.21
7168;BME280;3625;51.762;14.320;2022-09-03T07:31:51;100991.69;;;14.87;78.17
7168;BME280;3625;51.762;14.320;2022-09-03T07:34:25;100978.25;;;14.90;78.37
7168;BME280;3625;51.762;14.320;2022-09-03T07:36:59;101002.31;;;15.15;78.25
7168;BME280;3625;51.762;14.320;2022-09-03T07:39:28;100994.66;;;15.32;77.64
7168;BME280;3625;51.762;14.320;2022-09-03T07:41:59;101004.13;;;15.40;74.72
7168;BME280;3625;51.762;14.320;2022-09-03T07:44:28;101003.94;;;15.46;74.99
7168;BME280;3625;51.762;14.320;2022-09-03T07:46:57;100995.72;;;15.53;75.57
7168;BME280;3625;51.762;14.320;2022-09-03T07:49:27;101000.13;;;15.55;74.72
7168;BME280;3625;51.762;14.320;2022-09-03T07:51:55;100996.22;;;15.65;75.44
7168;BME280;3625;51.762;14.320;2022-09-03T07:54:24;101007.44;;;15.75;73.21
7168;BME280;3625;51.762;14.320;2022-09-03T07:56:54;101001.84;;;15.82;72.88
7168;BME280;3625;51.762;14.320;2022-09-03T07:59:25;101000.66;;;15.91;71.36
7168;BME280;3625;51.762;14.320;2022-09-03T08:01:54;101001.25;;;15.99;72.21
7168;BME280;3625;51.762;14.320;2022-09-03T08:04:24;100999.50;;;16.23;71.17
7168;BME280;3625;51.762;14.320;2022-09-03T08:06:53;101000.19;;;16.28;70.48
7168;BME280;3625;51.762;14.320;2022-09-03T08:09:23;100966.88;;;16.15;70.76
7168;BME280;3625;51.762;14.320;2022-09-03T08:11:52;101002.22;;;16.45;69.00
7168;BME280;3625;51.762;14.320;2022-09-03T08:14:21;100999.16;;;16.55;69.92
7168;BME280;3625;51.762;14.320;2022-09-03T08:16:51;101001.31;;;16.69;68.29
7168;BME280;3625;51.762;14.320;2022-09-03T08:19:20;101005.63;;;16.73;67.76
7168;BME280;3625;51.762;14.320;2022-09-03T08:21:49;100999.28;;;16.76;66.23
7168;BME280;3625;51.762;14.320;2022-09-03T08:24:18;100946.69;;;16.53;67.61
7168;BME280;3625;51.762;14.320;2022-09-03T08:26:51;100995.03;;;16.93;66.40
7168;BME280;3625;51.762;14.320;2022-09-03T08:29:21;100999.13;;;17.02;67.09
7168;BME280;3625;51.762;14.320;2022-09-03T08:31:52;100987.19;;;17.11;67.49
7168;BME280;3625;51.762;14.320;2022-09-03T08:34:21;100987.13;;;17.12;67.92
7168;BME280;3625;51.762;14.320;2022-09-03T08:36:50;100989.91;;;17.31;63.65
7168;BME280;3625;51.762;14.320;2022-09-03T08:39:20;100992.13;;;17.42;62.69
7168;BME280;3625;51.762;14.320;2022-09-03T08:42:25;100979.03;;;17.35;63.11
7168;BME280;3625;51.762;14.320;2022-09-03T08:44:59;100904.75;;;17.00;62.15
7168;BME280;3625;51.762;14.320;2022-09-03T08:47:39;100995.78;;;17.61;60.72
7168;BME280;3625;51.762;14.320;2022-09-03T08:50:24;100979.72;;;17.61;60.61
7168;BME280;3625;51.762;14.320;2022-09-03T08:53:02;100985.00;;;17.64;61.72
7168;BME280;3625;51.762;14.320;2022-09-03T08:55:41;100934.16;;;17.42;61.90
7168;BME280;3625;51.762;14.320;2022-09-03T08:58:13;100965.84;;;17.73;61.60
7168;BME280;3625;51.762;14.320;2022-09-03T09:00:56;100962.56;;;17.87;61.39
7168;BME280;3625;51.762;14.320;2022-09-03T09:03:52;100793.81;;;17.10;59.81
7168;BME280;3625;51.762;14.320;2022-09-03T09:06:33;100943.81;;;18.07;59.03
7168;BME280;3625;51.762;14.320;2022-09-03T09:09:16;100960.31;;;18.17;60.30
7168;BME280;3625;51.762;14.320;2022-09-03T09:12:03;100971.81;;;18.19;60.15
7168;BME280;3625;51.762;14.320;2022-09-03T09:15:09;100971.34;;;18.29;58.33
7168;BME280;3625;51.762;14.320;2022-09-03T09:17:52;100984.50;;;18.34;57.06
7168;BME280;3625;51.762;14.320;2022-09-03T09:20:36;100968.25;;;18.38;56.76
7168;BME280;3625;51.762;14.320;2022-09-03T09:23:13;100968.38;;;18.54;56.22
7168;BME280;3625;51.762;14.320;2022-09-03T09:25:48;100975.72;;;18.69;55.12
7168;BME280;3625;51.762;14.320;2022-09-03T09:28:20;100730.34;;;17.34;54.07
7168;BME280;3625;51.762;14.320;2022-09-03T09:30:56;100973.41;;;18.80;53.32
7168;BME280;3625;51.762;14.320;2022-09-03T09:33:25;100976.75;;;18.85;53.38
7168;BME280;3625;51.762;14.320;2022-09-03T09:35:59;100774.69;;;17.79;52.62
7168;BME280;3625;51.762;14.320;2022-09-03T09:38:34;100963.56;;;19.00;51.93
7168;BME280;3625;51.762;14.320;2022-09-03T09:41:10;100974.63;;;19.11;52.34
7168;BME280;3625;51.762;14.320;2022-09-03T09:43:40;100953.44;;;19.05;53.59
7168;BME280;3625;51.762;14.320;2022-09-03T09:46:14;100940.66;;;18.93;54.41
7168;BME280;3625;51.762;14.320;2022-09-03T09:48:50;100955.88;;;19.28;52.77
7168;BME280;3625;51.762;14.320;2022-09-03T09:51:22;100951.88;;;19.37;51.48
7168;BME280;3625;51.762;14.320;2022-09-03T09:54:02;100950.75;;;19.41;51.46
7168;BME280;3625;51.762;14.320;2022-09-03T09:56:31;100923.56;;;19.30;52.27
7168;BME280;3625;51.762;14.320;2022-09-03T09:59:05;100947.06;;;19.43;51.61
7168;BME280;3625;51.762;14.320;2022-09-03T10:01:38;100947.69;;;19.48;50.43
7168;BME280;3625;51.762;14.320;2022-09-03T10:04:20;100837.97;;;18.91;49.29
7168;BME280;3625;51.762;14.320;2022-09-03T10:06:55;100952.94;;;19.51;51.23
7168;BME280;3625;51.762;14.320;2022-09-03T10:09:31;100877.84;;;19.50;50.72
7168;BME280;3625;51.762;14.320;2022-09-03T10:12:13;100939.06;;;20.26;48.72
7168;BME280;3625;51.762;14.320;2022-09-03T10:14:54;100941.81;;;20.25;49.26
7168;BME280;3625;51.762;14.320;2022-09-03T10:17:43;100846.06;;;19.75;49.31
7168;BME280;3625;51.762;14.320;2022-09-03T10:20:25;100779.88;;;19.41;49.38
7168;BME280;3625;51.762;14.320;2022-09-03T10:23:14;100936.88;;;20.50;47.82
7168;BME280;3625;51.762;14.320;2022-09-03T10:26:01;100923.19;;;20.55;47.26
7168;BME280;3625;51.762;14.320;2022-09-03T10:28:35;100927.34;;;20.60;47.14
7168;BME280;3625;51.762;14.320;2022-09-03T10:34:19;100924.47;;;20.79;43.92
7168;BME280;3625;51.762;14.320;2022-09-03T10:37:13;100722.91;;;19.53;44.00
7168;BME280;3625;51.762;14.320;2022-09-03T10:40:16;100763.13;;;20.02;43.49
7168;BME280;3625;51.762;14.320;2022-09-03T10:43:13;100839.41;;;21.08;41.93
7168;BME280;3625;51.762;14.320;2022-09-03T10:46:00;100748.00;;;21.06;42.18
7168;BME280;3625;51.762;14.320;2022-09-03T10:48:54;100882.66;;;22.07;40.84
7168;BME280;3625;51.762;14.320;2022-09-03T10:51:35;100872.09;;;22.04;40.67
7168;BME280;3625;51.762;14.320;2022-09-03T10:54:37;100914.75;;;22.12;40.01
7168;BME280;3625;51.762;14.320;2022-09-03T10:57:25;100875.63;;;21.91;41.40
7168;BME280;3625;51.762;14.320;2022-09-03T11:00:05;100911.19;;;21.53;40.96
7168;BME280;3625;51.762;14.320;2022-09-03T11:03:14;100897.03;;;21.20;42.25
7168;BME280;3625;51.762;14.320;2022-09-03T11:06:02;100855.59;;;20.77;42.80
7168;BME280;3625;51.762;14.320;2022-09-03T11:08:40;100835.06;;;20.60;43.65
7168;BME280;3625;51.762;14.320;2022-09-03T11:11:16;100728.34;;;20.46;43.55
7168;BME280;3625;51.762;14.320;2022-09-03T11:13:55;100869.84;;;21.68;41.09
7168;BME280;3625;51.762;14.320;2022-09-03T11:16:31;100888.00;;;21.21;41.21
7168;BME280;3625;51.762;14.320;2022-09-03T11:19:04;100883.03;;;21.13;42.45
7168;BME280;3625;51.762;14.320;2022-09-03T11:21:41;100880.78;;;20.76;42.69
7168;BME280;3625;51.762;14.320;2022-09-03T11:24:20;100706.44;;;19.91;42.83
7168;BME280;3625;51.762;14.320;2022-09-03T11:27:03;100805.19;;;20.80;42.86
7168;BME280;3625;51.762;14.320;2022-09-03T11:29:49;100784.72;;;21.52;41.66
7168;BME280;3625;51.762;14.320;2022-09-03T11:32:28;100856.41;;;22.11;40.05
7168;BME280;3625;51.762;14.320;2022-09-03T11:35:00;100742.69;;;21.35;41.01
7168;BME280;3625;51.762;14.320;2022-09-03T11:37:30;100851.75;;;22.27;40.83
7168;BME280;3625;51.762;14.320;2022-09-03T11:40:06;100818.03;;;22.34;40.27
7168;BME280;3625;51.762;14.320;2022-09-03T11:42:40;100835.03;;;22.08;39.98
7168;BME280;3625;51.762;14.320;2022-09-03T11:45:23;100866.25;;;22.53;39.83
7168;BME280;3625;51.762;14.320;2022-09-03T11:47:52;100878.88;;;22.52;40.02
7168;BME280;3625;51.762;14.320;2022-09-03T11:50:24;100613.19;;;20.97;39.99
7168;BME280;3625;51.762;14.320;2022-09-03T11:53:08;100644.66;;;21.25;40.19
7168;BME280;3625;51.762;14.320;2022-09-03T11:55:52;100866.84;;;22.85;38.53
7168;BME280;3625;51.762;14.320;2022-09-03T11:58:29;100813.94;;;22.14;39.08
7168;BME280;3625;51.762;14.320;2022-09-03T12:01:04;100839.75;;;21.76;40.38
7168;BME280;3625;51.762;14.320;2022-09-03T12:03:48;100713.41;;;21.15;41.23
7168;BME280;3625;51.762;14.320;2022-09-03T12:06:42;100673.72;;;21.04;40.69
7168;BME280;3625;51.762;14.320;2022-09-03T12:09:53;100837.97;;;22.46;40.35
7168;BME280;3625;51.762;14.320;2022-09-03T12:12:58;100851.47;;;22.58;39.04
7168;BME280;3625;51.762;14.320;2022-09-03T12:15:57;100588.69;;;21.30;39.83
7168;BME280;3625;51.762;14.320;2022-09-03T12:18:49;100541.72;;;20.79;40.34
7168;BME280;3625;51.762;14.320;2022-09-03T12:21:37;100659.19;;;21.77;40.53
7168;BME280;3625;51.762;14.320;2022-09-03T12:24:10;100851.78;;;22.95;39.05
7168;BME280;3625;51.762;14.320;2022-09-03T12:26:58;100842.28;;;23.02;38.94
7168;BME280;3625;51.762;14.320;2022-09-03T12:29:30;100838.69;;;22.89;39.09
7168;BME280;3625;51.762;14.320;2022-09-03T12:32:13;100586.34;;;21.38;40.17
7168;BME280;3625;51.762;14.320;2022-09-03T12:34:55;100838.41;;;22.52;40.36
7168;BME280;3625;51.762;14.320;2022-09-03T12:37:31;100832.63;;;22.17;40.58
7168;BME280;3625;51.762;14.320;2022-09-03T12:40:25;100843.03;;;22.09;40.82
7168;BME280;3625;51.762;14.320;2022-09-03T12:43:15;100837.78;;;22.76;39.77
7168;BME280;3625;51.762;14.320;2022-09-03T12:46:13;100835.31;;;23.12;38.97
7168;BME280;3625;51.762;14.320;2022-09-03T12:49:07;100841.06;;;23.33;38.25
7168;BME280;3625;51.762;14.320;2022-09-03T12:52:25;100820.00;;;22.86;39.00
7168;BME280;3625;51.762;14.320;2022-09-03T12:55:10;100641.50;;;22.00;39.16
7168;BME280;3625;51.762;14.320;2022-09-03T12:57:50;100510.78;;;21.41;38.79
7168;BME280;3625;51.762;14.320;2022-09-03T13:00:36;100543.91;;;21.56;39.25
7168;BME280;3625;51.762;14.320;2022-09-03T13:03:21;100561.44;;;21.49;39.57
7168;BME280;3625;51.762;14.320;2022-09-03T13:06:10;100717.84;;;21.87;39.99
7168;BME280;3625;51.762;14.320;2022-09-03T13:08:50;100524.84;;;20.48;40.35
7168;BME280;3625;51.762;14.320;2022-09-03T13:11:24;100803.47;;;21.96;40.55
7168;BME280;3625;51.762;14.320;2022-09-03T13:14:10;100803.78;;;22.32;40.82
7168;BME280;3625;51.762;14.320;2022-09-03T13:17:17;100561.31;;;20.95;39.50
7168;BME280;3625;51.762;14.320;2022-09-03T13:20:14;100685.69;;;22.25;39.22
7168;BME280;3625;51.762;14.320;2022-09-03T13:23:21;100499.66;;;20.92;39.38
7168;BME280;3625;51.762;14.320;2022-09-03T13:26:12;100702.69;;;21.57;39.85
7168;BME280;3625;51.762;14.320;2022-09-03T13:29:18;100802.22;;;22.42;40.10
7168;BME280;3625;51.762;14.320;2022-09-03T13:31:51;100796.56;;;22.33;40.40
7168;BME280;3625;51.762;14.320;2022-09-03T13:34:33;100793.69;;;22.63;39.34
7168;BME280;3625;51.762;14.320;2022-09-03T13:37:15;100805.63;;;22.58;39.35
7168;BME280;3625;51.762;14.320;2022-09-03T13:40:00;100809.94;;;22.48;38.93
7168;BME280;3625;51.762;14.320;2022-09-03T13:42:36;100811.97;;;22.99;38.59
7168;BME280;3625;51.762;14.320;2022-09-03T13:45:15;100816.78;;;23.33;38.43
7168;BME280;3625;51.762;14.320;2022-09-03T13:47:59;100793.25;;;23.60;38.18
7168;BME280;3625;51.762;14.320;2022-09-03T13:50:56;100790.28;;;23.38;37.85
7168;BME280;3625;51.762;14.320;2022-09-03T13:53:50;100810.69;;;23.29;38.26
7168;BME280;3625;51.762;14.320;2022-09-03T13:56:48;100773.41;;;23.09;39.05
7168;BME280;3625;51.762;14.320;2022-09-03T13:59:31;100802.28;;;23.21;39.54
7168;BME280;3625;51.762;14.320;2022-09-03T14:02:27;100796.72;;;23.50;39.20
7168;BME280;3625;51.762;14.320;2022-09-03T14:05:33;100795.72;;;23.76;38.27
7168;BME280;3625;51.762;14.320;2022-09-03T14:08:27;100785.75;;;23.89;38.30